createdAt,value
2022-09-27T00:01:02.171Z,12.74
2022-09-27T00:03:34.153Z,12.76
2022-09-27T00:06:14.363Z,12.79
2022-09-27T00:08:45.981Z,12.73
2022-09-27T00:11:31.986Z,12.70
2022-09-27T00:14:06.322Z,12.71
2022-09-27T00:16:42.212Z,12.76
2022-09-27T00:19:19.386Z,12.75
2022-09-27T00:21:51.394Z,12.70
2022-09-27T00:24:23.133Z,12.60
2022-09-27T00:26:56.033Z,12.67
2022-09-27T00:29:27.667Z,12.69
2022-09-27T00:32:24.652Z,12.74
2022-09-27T00:34:56.361Z,12.73
2022-09-27T00:37:29.196Z,12.75
2022-09-27T00:40:00.990Z,12.75
2022-09-27T00:42:37.386Z,12.75
2022-09-27T00:45:15.044Z,12.70
2022-09-27T00:48:00.576Z,12.68
2022-09-27T00:50:43.623Z,12.72
2022-09-27T00:53:26.900Z,12.76
2022-09-27T00:56:03.616Z,12.79
2022-09-27T00:58:39.937Z,12.76
2022-09-27T01:01:14.743Z,12.76
2022-09-27T01:04:08.021Z,12.73
2022-09-27T01:06:42.530Z,12.64
2022-09-27T01:09:16.129Z,12.61
2022-09-27T01:12:01.256Z,12.60
2022-09-27T01:14:58.537Z,12.59
2022-09-27T01:17:51.429Z,12.61
2022-09-27T01:20:35.585Z,12.66
2022-09-27T01:23:34.159Z,12.71
2022-09-27T01:26:24.918Z,12.75
2022-09-27T01:29:05.190Z,12.68
2022-09-27T01:32:03.337Z,12.65
2022-09-27T01:34:48.404Z,12.68
2022-09-27T01:37:29.593Z,12.71
2022-09-27T01:40:28.478Z,12.72
2022-09-27T01:43:49.692Z,12.74
2022-09-27T01:46:35.450Z,12.77
2022-09-27T01:49:46.029Z,12.76
2022-09-27T01:52:27.172Z,12.79
2022-09-27T01:55:06.556Z,12.83
2022-09-27T01:58:03.556Z,12.78
2022-09-27T02:00:36.933Z,12.84
2022-09-27T02:03:20.729Z,12.83
2022-09-27T02:06:23.310Z,12.86
2022-09-27T02:09:25.044Z,12.87
2022-09-27T02:12:18.874Z,12.87
2022-09-27T02:14:58.612Z,12.88
2022-09-27T02:17:56.514Z,12.91
2022-09-27T02:20:46.230Z,12.91
2022-09-27T02:23:39.545Z,12.92
2022-09-27T02:26:31.483Z,12.93
2022-09-27T02:29:11.363Z,12.91
2022-09-27T02:31:52.659Z,12.90
2022-09-27T02:34:29.458Z,12.90
2022-09-27T02:37:01.834Z,12.90
2022-09-27T02:39:37.893Z,12.87
2022-09-27T02:42:12.655Z,12.87
2022-09-27T02:44:46.905Z,12.86
2022-09-27T02:47:24.463Z,12.86
2022-09-27T02:50:17.204Z,12.83
2022-09-27T02:53:50.332Z,12.88
2022-09-27T02:57:26.532Z,12.86
2022-09-27T03:00:28.583Z,12.89
2022-09-27T03:03:20.939Z,12.93
2022-09-27T03:06:09.205Z,12.94
2022-09-27T03:08:41.957Z,12.97
2022-09-27T03:11:13.839Z,12.95
2022-09-27T03:14:07.865Z,12.98
2022-09-27T03:16:43.377Z,13.01
2022-09-27T03:19:33.529Z,13.00
2022-09-27T03:22:26.504Z,12.89
2022-09-27T03:24:59.537Z,12.90
2022-09-27T03:27:31.222Z,12.87
2022-09-27T03:30:06.412Z,12.83
2022-09-27T03:32:44.114Z,12.82
2022-09-27T03:35:37.305Z,12.76
2022-09-27T03:38:12.708Z,12.80
2022-09-27T03:40:48.087Z,12.79
2022-09-27T03:43:20.065Z,12.80
2022-09-27T03:45:52.353Z,12.73
2022-09-27T03:48:27.986Z,12.79
2022-09-27T03:51:00.047Z,12.77
2022-09-27T03:53:31.793Z,12.80
2022-09-27T03:56:04.253Z,12.78
2022-09-27T03:58:36.050Z,12.80
2022-09-27T04:01:11.879Z,12.76
2022-09-27T04:03:47.400Z,12.79
2022-09-27T04:06:52.973Z,12.85
2022-09-27T04:09:25.345Z,12.89
2022-09-27T04:12:05.089Z,12.88
2022-09-27T04:14:37.955Z,12.90
2022-09-27T04:17:28.493Z,12.90
2022-09-27T04:20:19.834Z,12.89
2022-09-27T04:22:51.427Z,12.85
2022-09-27T04:25:23.264Z,12.82
2022-09-27T04:27:55.625Z,12.80
2022-09-27T04:30:29.127Z,12.73
2022-09-27T04:33:00.750Z,12.72
2022-09-27T04:36:12.827Z,12.66
2022-09-27T04:39:01.387Z,12.64
2022-09-27T04:41:35.674Z,12.59
2022-09-27T04:44:07.342Z,12.62
2022-09-27T04:46:39.220Z,12.61
2022-09-27T04:49:11.013Z,12.53
2022-09-27T04:51:42.750Z,12.47
2022-09-27T04:54:16.417Z,12.41
2022-09-27T04:57:12.361Z,12.35
2022-09-27T04:59:45.288Z,12.36
2022-09-27T05:02:18.880Z,12.33
2022-09-27T05:05:22.795Z,12.30
2022-09-27T05:07:55.408Z,12.25
2022-09-27T05:10:43.235Z,12.21
2022-09-27T05:13:19.161Z,12.21
2022-09-27T05:15:53.858Z,12.16
2022-09-27T05:18:45.947Z,12.15
2022-09-27T05:21:35.815Z,12.16
2022-09-27T05:24:07.490Z,12.12
2022-09-27T05:26:39.168Z,12.15
2022-09-27T05:29:11.559Z,12.18
2022-09-27T05:31:47.721Z,12.20
2022-09-27T05:34:22.531Z,12.15
2022-09-27T05:37:02.492Z,12.10
2022-09-27T05:39:37.104Z,12.07
2022-09-27T05:42:10.315Z,12.09
2022-09-27T05:44:42.461Z,12.13
2022-09-27T05:47:16.051Z,12.16
2022-09-27T05:49:48.788Z,12.19
2022-09-27T05:52:21.614Z,12.20
2022-09-27T05:54:55.901Z,12.20
2022-09-27T05:57:27.810Z,12.23
2022-09-27T06:00:05.240Z,12.24
2022-09-27T06:03:04.349Z,12.25
2022-09-27T06:06:05.856Z,12.23
2022-09-27T06:08:44.084Z,12.23
2022-09-27T06:11:19.470Z,12.25
2022-09-27T06:13:52.968Z,12.32
2022-09-27T06:16:28.496Z,12.30
2022-09-27T06:19:02.275Z,12.35
2022-09-27T06:21:37.575Z,12.27
2022-09-27T06:24:12.543Z,12.30
2022-09-27T06:26:45.438Z,12.31
2022-09-27T06:29:35.650Z,12.32
2022-09-27T06:32:13.367Z,12.38
2022-09-27T06:35:14.318Z,12.38
2022-09-27T06:37:47.457Z,12.36
2022-09-27T06:40:20.359Z,12.43
2022-09-27T06:43:06.165Z,12.51
2022-09-27T06:46:05.354Z,12.44
2022-09-27T06:48:56.595Z,12.47
2022-09-27T06:51:31.388Z,12.52
2022-09-27T06:54:03.055Z,12.56
2022-09-27T06:56:40.905Z,12.56
2022-09-27T06:59:31.496Z,12.67
2022-09-27T07:02:25.696Z,12.72
2022-09-27T07:05:21.027Z,12.82
2022-09-27T07:08:09.825Z,12.83
2022-09-27T07:10:45.069Z,12.93
2022-09-27T07:13:17.228Z,13.02
2022-09-27T07:15:49.567Z,13.11
2022-09-27T07:18:21.377Z,13.20
2022-09-27T07:20:56.872Z,13.24
2022-09-27T07:23:32.157Z,13.19
2022-09-27T07:26:06.921Z,13.28
2022-09-27T07:28:41.553Z,13.42
2022-09-27T07:31:14.217Z,13.59
2022-09-27T07:33:46.234Z,13.77
2022-09-27T07:36:21.920Z,13.90
2022-09-27T07:38:53.903Z,13.93
2022-09-27T07:41:27.001Z,13.92
2022-09-27T07:43:59.952Z,14.01
2022-09-27T07:46:35.908Z,14.12
2022-09-27T07:49:25.065Z,14.21
2022-09-27T07:52:23.421Z,14.28
2022-09-27T07:55:24.443Z,14.48
2022-09-27T07:58:16.640Z,14.65
2022-09-27T08:00:48.706Z,14.65
2022-09-27T08:03:20.430Z,14.73
2022-09-27T08:05:57.861Z,14.92
2022-09-27T08:08:30.194Z,15.07
2022-09-27T08:11:10.279Z,15.17
2022-09-27T08:13:43.431Z,15.18
2022-09-27T08:16:18.209Z,15.28
2022-09-27T08:19:11.646Z,15.35
2022-09-27T08:22:01.703Z,15.52
2022-09-27T08:24:39.877Z,15.68
2022-09-27T08:27:19.964Z,15.78
2022-09-27T08:29:54.164Z,15.68
2022-09-27T08:32:33.143Z,15.73
2022-09-27T08:35:09.437Z,15.79
2022-09-27T08:37:41.356Z,15.72
2022-09-27T08:40:17.768Z,15.47
2022-09-27T08:43:16.721Z,15.31
2022-09-27T08:46:10.230Z,15.16
2022-09-27T08:48:48.481Z,14.92
2022-09-27T08:51:26.088Z,14.65
2022-09-27T08:54:30.103Z,14.46
2022-09-27T08:57:26.574Z,14.35
2022-09-27T09:00:07.208Z,14.30
2022-09-27T09:02:41.672Z,14.35
2022-09-27T09:05:21.685Z,14.29
2022-09-27T09:08:19.127Z,14.30
2022-09-27T09:11:18.668Z,14.40
2022-09-27T09:14:13.700Z,14.49
2022-09-27T09:17:22.524Z,14.49
2022-09-27T09:20:47.771Z,14.40
2022-09-27T09:23:37.548Z,14.42
2022-09-27T09:26:17.818Z,14.46
2022-09-27T09:29:17.066Z,14.41
2022-09-27T09:32:24.285Z,14.42
2022-09-27T09:35:25.056Z,14.51
2022-09-27T09:38:08.616Z,14.59
2022-09-27T09:40:55.764Z,14.66
2022-09-27T09:44:21.484Z,14.55
2022-09-27T09:46:59.858Z,14.49
2022-09-27T09:49:41.993Z,14.49
2022-09-27T09:52:19.552Z,14.46
2022-09-27T09:55:00.785Z,14.46
2022-09-27T09:58:03.495Z,14.61
2022-09-27T10:00:45.524Z,14.78
2022-09-27T10:03:17.574Z,14.90
2022-09-27T10:05:50.178Z,14.87
2022-09-27T10:08:24.230Z,14.86
2022-09-27T10:11:21.341Z,14.76
2022-09-27T10:14:01.670Z,14.68
2022-09-27T10:16:33.475Z,14.47
2022-09-27T10:19:10.093Z,14.35
2022-09-27T10:21:47.724Z,14.28
2022-09-27T10:24:20.711Z,14.22
2022-09-27T10:27:21.912Z,14.25
2022-09-27T10:30:02.111Z,14.36
2022-09-27T10:32:37.140Z,14.41
2022-09-27T10:35:28.966Z,14.42
2022-09-27T10:38:18.940Z,14.57
2022-09-27T10:40:56.081Z,14.63
2022-09-27T10:43:32.630Z,14.68
2022-09-27T10:46:34.505Z,14.73
2022-09-27T10:49:35.614Z,14.79
2022-09-27T10:52:18.694Z,15.00
2022-09-27T10:54:56.690Z,15.11
2022-09-27T10:57:31.229Z,15.18
2022-09-27T11:00:23.162Z,15.47
2022-09-27T11:02:59.914Z,15.63
2022-09-27T11:05:39.576Z,15.46
2022-09-27T11:08:24.190Z,15.37
2022-09-27T11:11:25.399Z,15.35
2022-09-27T11:14:12.036Z,15.45
2022-09-27T11:17:05.076Z,15.61
2022-09-27T11:20:12.541Z,15.67
2022-09-27T11:23:45.671Z,15.73
2022-09-27T11:26:44.796Z,15.57
2022-09-27T11:29:41.890Z,15.49
2022-09-27T11:32:41.903Z,15.80
2022-09-27T11:35:38.986Z,16.05
2022-09-27T11:38:52.283Z,16.07
2022-09-27T11:41:37.588Z,16.06
2022-09-27T11:44:48.766Z,16.08
2022-09-27T11:47:49.399Z,16.09
2022-09-27T11:50:58.625Z,15.90
2022-09-27T11:54:03.343Z,15.72
2022-09-27T11:57:06.039Z,15.91
2022-09-27T12:00:05.615Z,16.01
2022-09-27T12:03:28.474Z,15.95
2022-09-27T12:06:21.462Z,15.92
2022-09-27T12:08:55.898Z,16.10
2022-09-27T12:11:37.419Z,16.43
2022-09-27T12:14:22.490Z,16.43
2022-09-27T12:16:58.460Z,16.32
2022-09-27T12:19:39.981Z,16.27
2022-09-27T12:22:53.962Z,16.28
2022-09-27T12:25:23.683Z,16.14
2022-09-27T12:28:34.724Z,15.93
2022-09-27T12:31:30.485Z,15.64
2022-09-27T12:34:18.886Z,15.51
2022-09-27T12:37:33.044Z,15.72
2022-09-27T12:40:30.175Z,15.90
2022-09-27T12:43:27.842Z,16.15
2022-09-27T12:46:20.673Z,16.48
2022-09-27T12:49:25.767Z,16.68
2022-09-27T12:52:05.273Z,16.55
2022-09-27T12:54:37.500Z,16.19
2022-09-27T12:57:34.486Z,16.05
2022-09-27T13:00:21.104Z,15.96
2022-09-27T13:03:34.679Z,15.92
2022-09-27T13:06:27.482Z,15.95
2022-09-27T13:09:10.521Z,16.04
2022-09-27T13:11:55.253Z,16.17
2022-09-27T13:14:32.276Z,16.09
2022-09-27T13:17:04.073Z,16.08
2022-09-27T13:19:45.564Z,15.99
2022-09-27T13:22:40.664Z,15.89
2022-09-27T13:25:56.457Z,16.08
2022-09-27T13:28:58.432Z,16.22
2022-09-27T13:31:57.775Z,16.35
2022-09-27T13:34:48.827Z,16.32
2022-09-27T13:37:55.438Z,16.56
2022-09-27T13:40:40.786Z,16.73
2022-09-27T13:43:47.673Z,16.78
2022-09-27T13:46:37.041Z,16.63
2022-09-27T13:49:19.179Z,16.62
2022-09-27T13:52:34.073Z,16.74
2022-09-27T13:55:41.545Z,16.97
2022-09-27T13:58:35.531Z,17.33
2022-09-27T14:01:42.971Z,17.63
2022-09-27T14:04:27.481Z,17.43
2022-09-27T14:07:02.142Z,17.24
2022-09-27T14:09:48.166Z,17.14
2022-09-27T14:12:32.389Z,16.98
2022-09-27T14:15:08.776Z,16.90
2022-09-27T14:17:46.836Z,16.70
2022-09-27T14:20:41.681Z,16.78
2022-09-27T14:23:27.246Z,16.73
2022-09-27T14:25:59.071Z,16.54
2022-09-27T14:28:40.282Z,16.38
2022-09-27T14:31:24.571Z,16.29
2022-09-27T14:34:15.345Z,16.08
2022-09-27T14:37:10.570Z,15.89
2022-09-27T14:40:21.990Z,15.54
2022-09-27T14:42:59.868Z,15.46
2022-09-27T14:45:37.513Z,15.30
2022-09-27T14:48:22.482Z,15.07
2022-09-27T14:51:09.498Z,14.97
2022-09-27T14:53:47.639Z,14.84
2022-09-27T14:56:22.810Z,14.77
2022-09-27T14:59:02.556Z,14.65
2022-09-27T15:01:36.177Z,14.52
2022-09-27T15:04:14.083Z,14.37
2022-09-27T15:06:47.438Z,14.29
2022-09-27T15:09:19.586Z,14.12
2022-09-27T15:12:00.810Z,13.92
2022-09-27T15:14:33.814Z,13.77
2022-09-27T15:17:16.617Z,13.60
2022-09-27T15:20:00.226Z,13.49
2022-09-27T15:22:33.807Z,13.44
2022-09-27T15:25:34.852Z,13.38
2022-09-27T15:28:19.094Z,13.44
2022-09-27T15:30:57.653Z,13.31
2022-09-27T15:33:34.690Z,13.35
2022-09-27T15:36:11.757Z,13.29
2022-09-27T15:38:48.274Z,13.30
2022-09-27T15:41:21.350Z,13.29
2022-09-27T15:43:53.095Z,13.31
2022-09-27T15:46:43.257Z,13.41
2022-09-27T15:49:18.063Z,13.51
2022-09-27T15:51:54.717Z,13.58
2022-09-27T15:54:37.131Z,13.59
2022-09-27T15:57:12.368Z,13.60
2022-09-27T15:59:43.997Z,13.65
2022-09-27T16:02:17.577Z,13.59
2022-09-27T16:04:49.197Z,13.58
2022-09-27T16:07:21.088Z,13.52
2022-09-27T16:09:55.451Z,13.52
2022-09-27T16:12:30.232Z,13.43
2022-09-27T16:15:01.877Z,13.28
2022-09-27T16:17:33.540Z,13.21
2022-09-27T16:20:06.159Z,13.08
2022-09-27T16:22:37.827Z,13.01
2022-09-27T16:25:09.664Z,12.91
2022-09-27T16:27:41.657Z,12.87
2022-09-27T16:30:14.089Z,12.82
2022-09-27T16:32:47.617Z,12.80
2022-09-27T16:35:20.880Z,12.82
2022-09-27T16:37:52.688Z,12.76
2022-09-27T16:40:26.673Z,12.76
2022-09-27T16:42:58.406Z,12.70
2022-09-27T16:45:33.325Z,12.69
2022-09-27T16:48:07.749Z,12.65
2022-09-27T16:50:57.848Z,12.63
2022-09-27T16:53:30.222Z,12.61
2022-09-27T16:56:02.112Z,12.59
2022-09-27T16:58:33.720Z,12.57
2022-09-27T17:01:05.962Z,12.52
2022-09-27T17:03:38.064Z,12.46
2022-09-27T17:06:12.645Z,12.35
2022-09-27T17:08:45.131Z,12.32
2022-09-27T17:11:18.829Z,12.29
2022-09-27T17:13:54.767Z,12.22
2022-09-27T17:16:28.208Z,12.24
2022-09-27T17:18:59.940Z,12.23
2022-09-27T17:21:38.170Z,12.17
2022-09-27T17:24:10.098Z,12.15
2022-09-27T17:26:42.181Z,12.14
2022-09-27T17:29:14.488Z,12.10
2022-09-27T17:31:46.376Z,12.06
2022-09-27T17:34:18.307Z,12.05
2022-09-27T17:36:51.662Z,12.04
2022-09-27T17:39:23.302Z,12.05
2022-09-27T17:41:54.950Z,11.94
2022-09-27T17:44:27.196Z,11.87
2022-09-27T17:47:17.521Z,11.88
2022-09-27T17:50:21.079Z,11.84
2022-09-27T17:52:53.785Z,11.83
2022-09-27T17:55:27.050Z,11.77
2022-09-27T17:57:58.646Z,11.77
2022-09-27T18:00:30.477Z,11.74
2022-09-27T18:03:02.179Z,11.69
2022-09-27T18:05:34.013Z,11.65
2022-09-27T18:08:05.713Z,11.62
2022-09-27T18:10:40.224Z,11.56
2022-09-27T18:13:12.832Z,11.52
2022-09-27T18:15:45.639Z,11.46
2022-09-27T18:18:17.320Z,11.41
2022-09-27T18:20:49.002Z,11.35
2022-09-27T18:23:20.665Z,11.35
2022-09-27T18:25:55.859Z,11.35
2022-09-27T18:28:31.781Z,11.34
2022-09-27T18:31:15.787Z,11.34
2022-09-27T18:33:49.290Z,11.33
2022-09-27T18:36:26.069Z,11.38
2022-09-27T18:39:00.672Z,11.40
2022-09-27T18:41:34.107Z,11.37
2022-09-27T18:44:06.744Z,11.33
2022-09-27T18:46:38.598Z,11.31
2022-09-27T18:49:12.681Z,11.32
2022-09-27T18:51:46.294Z,11.33
2022-09-27T18:54:22.580Z,11.36
2022-09-27T18:56:58.876Z,11.37
2022-09-27T18:59:30.569Z,11.35
2022-09-27T19:02:02.294Z,11.32
2022-09-27T19:04:33.956Z,11.35
2022-09-27T19:07:05.604Z,11.41
2022-09-27T19:09:37.268Z,11.45
2022-09-27T19:12:08.960Z,11.46
2022-09-27T19:14:40.587Z,11.41
2022-09-27T19:17:14.254Z,11.39
2022-09-27T19:19:45.893Z,11.39
2022-09-27T19:22:19.897Z,11.33
2022-09-27T19:24:54.606Z,11.35
2022-09-27T19:27:26.234Z,11.37
2022-09-27T19:29:59.246Z,11.43
2022-09-27T19:32:33.758Z,11.40
2022-09-27T19:35:06.143Z,11.31
2022-09-27T19:37:37.827Z,11.29
2022-09-27T19:40:09.438Z,11.27
2022-09-27T19:42:41.218Z,11.28
2022-09-27T19:45:12.802Z,11.26
2022-09-27T19:47:44.621Z,11.28
2022-09-27T19:50:16.700Z,11.33
2022-09-27T19:52:49.593Z,11.26
2022-09-27T19:55:21.200Z,11.26
2022-09-27T19:57:55.143Z,11.22
2022-09-27T20:00:26.788Z,11.20
2022-09-27T20:02:58.753Z,11.24
2022-09-27T20:05:30.382Z,11.31
2022-09-27T20:08:04.942Z,11.35
2022-09-27T20:10:36.533Z,11.36
2022-09-27T20:13:08.149Z,11.32
2022-09-27T20:15:39.764Z,11.24
2022-09-27T20:18:11.912Z,11.24
2022-09-27T20:20:43.688Z,11.21
2022-09-27T20:23:19.898Z,11.22
2022-09-27T20:25:51.542Z,11.17
2022-09-27T20:28:23.160Z,11.13
2022-09-27T20:30:59.452Z,11.13
2022-09-27T20:33:49.633Z,11.06
2022-09-27T20:36:27.746Z,11.06
2022-09-27T20:39:05.273Z,11.08
2022-09-27T20:41:40.777Z,11.07
2022-09-27T20:44:14.770Z,11.11
2022-09-27T20:46:47.493Z,11.12
2022-09-27T20:49:19.560Z,11.08
2022-09-27T20:51:51.438Z,11.08
2022-09-27T20:54:23.167Z,11.11
2022-09-27T20:56:55.143Z,11.07
2022-09-27T20:59:26.811Z,11.00
2022-09-27T21:01:58.536Z,10.96
2022-09-27T21:04:31.657Z,10.96
2022-09-27T21:07:03.894Z,10.99
2022-09-27T21:09:37.447Z,10.99
2022-09-27T21:12:09.013Z,10.93
2022-09-27T21:14:40.677Z,10.92
2022-09-27T21:17:12.605Z,10.86
2022-09-27T21:19:44.261Z,10.83
2022-09-27T21:22:19.079Z,10.89
2022-09-27T21:24:52.114Z,10.91
2022-09-27T21:27:23.685Z,10.89
2022-09-27T21:29:55.335Z,10.89
2022-09-27T21:32:28.657Z,10.92
2022-09-27T21:35:00.378Z,10.86
2022-09-27T21:37:31.933Z,10.87
2022-09-27T21:40:05.256Z,10.80
2022-09-27T21:42:36.829Z,10.81
2022-09-27T21:45:09.056Z,10.83
2022-09-27T21:47:41.717Z,10.85
2022-09-27T21:50:15.694Z,10.88
2022-09-27T21:52:47.370Z,10.91
2022-09-27T21:55:18.978Z,10.94
2022-09-27T21:57:50.756Z,10.94
2022-09-27T22:00:22.659Z,10.95
2022-09-27T22:02:58.041Z,10.95
2022-09-27T22:05:29.662Z,10.97
2022-09-27T22:08:01.378Z,10.98
2022-09-27T22:10:33.021Z,10.98
2022-09-27T22:13:04.738Z,10.92
2022-09-27T22:15:37.410Z,10.90
2022-09-27T22:18:08.973Z,10.91
2022-09-27T22:20:40.569Z,10.92
2022-09-27T22:23:12.749Z,10.89
2022-09-27T22:25:44.421Z,10.91
2022-09-27T22:28:16.006Z,10.91
2022-09-27T22:30:47.623Z,10.92
2022-09-27T22:33:19.473Z,10.86
2022-09-27T22:35:51.135Z,10.80
2022-09-27T22:38:22.766Z,10.79
2022-09-27T22:40:59.027Z,10.79
2022-09-27T22:43:31.678Z,10.79
2022-09-27T22:46:03.523Z,10.68
2022-09-27T22:48:36.523Z,10.66
2022-09-27T22:51:09.175Z,10.58
2022-09-27T22:53:41.090Z,10.52
2022-09-27T22:56:15.327Z,10.50
2022-09-27T22:58:48.187Z,10.48
2022-09-27T23:01:27.482Z,10.48
2022-09-27T23:03:59.270Z,10.49
2022-09-27T23:06:32.030Z,10.49
2022-09-27T23:09:03.678Z,10.51
2022-09-27T23:11:35.480Z,10.54
2022-09-27T23:14:08.388Z,10.55
2022-09-27T23:16:40.021Z,10.52
2022-09-27T23:19:11.613Z,10.49
2022-09-27T23:21:43.265Z,10.47
2022-09-27T23:24:14.844Z,10.49
2022-09-27T23:27:06.589Z,10.42
2022-09-27T23:29:38.194Z,10.35
2022-09-27T23:32:09.857Z,10.24
2022-09-27T23:34:44.164Z,10.24
2022-09-27T23:37:15.778Z,10.22
2022-09-27T23:39:47.702Z,10.25
2022-09-27T23:42:19.602Z,10.29
2022-09-27T23:44:52.658Z,10.31
2022-09-27T23:47:26.290Z,10.34
2022-09-27T23:49:58.346Z,10.36
2022-09-27T23:52:30.021Z,10.39
2022-09-27T23:55:01.678Z,10.45
2022-09-27T23:57:33.259Z,10.44
